createdAt,value
2018-06-10T00:00:20.141Z,0
2018-06-10T00:01:21.534Z,0
2018-06-10T00:02:22.935Z,0
2018-06-10T00:03:24.322Z,0
2018-06-10T00:04:25.716Z,0
2018-06-10T00:05:27.111Z,0
2018-06-10T00:06:28.504Z,0
2018-06-10T00:07:29.895Z,0
2018-06-10T00:08:31.289Z,0
2018-06-10T00:09:32.684Z,0
2018-06-10T00:10:34.079Z,0
2018-06-10T00:11:35.472Z,0
2018-06-10T00:12:36.861Z,0
2018-06-10T00:13:38.255Z,0
2018-06-10T00:14:39.652Z,0
2018-06-10T00:15:41.043Z,0
2018-06-10T00:16:42.442Z,0
2018-06-10T00:17:43.836Z,0
2018-06-10T00:18:45.224Z,0
2018-06-10T00:19:46.618Z,0
2018-06-10T00:20:48.018Z,0
2018-06-10T00:21:49.415Z,0
2018-06-10T00:22:50.814Z,0
2018-06-10T00:23:52.238Z,0
2018-06-10T00:24:53.644Z,0
2018-06-10T00:25:55.045Z,0
2018-06-10T00:26:56.431Z,0
2018-06-10T00:27:57.825Z,0
2018-06-10T00:28:59.218Z,0
2018-06-10T00:30:00.632Z,0
2018-06-10T00:31:02.028Z,0
2018-06-10T00:32:03.419Z,0
2018-06-10T00:33:04.812Z,0
2018-06-10T00:34:06.206Z,0
2018-06-10T00:35:07.608Z,0
2018-06-10T00:36:08.997Z,0
2018-06-10T00:37:10.389Z,0
2018-06-10T00:38:11.783Z,0
2018-06-10T00:39:13.174Z,0
2018-06-10T00:40:14.568Z,0
2018-06-10T00:41:15.961Z,0
2018-06-10T00:42:17.352Z,0
2018-06-10T00:43:18.746Z,0
2018-06-10T00:44:20.142Z,0
2018-06-10T00:45:21.538Z,0
2018-06-10T00:46:22.929Z,0
2018-06-10T00:47:24.321Z,0
2018-06-10T00:48:25.716Z,0
2018-06-10T00:49:27.109Z,0
2018-06-10T00:50:28.508Z,0
2018-06-10T00:51:29.903Z,0
2018-06-10T00:52:31.299Z,0
2018-06-10T00:53:32.694Z,0
2018-06-10T00:54:34.083Z,0
2018-06-10T00:55:35.477Z,0
2018-06-10T00:56:36.869Z,0
2018-06-10T00:57:38.264Z,0
2018-06-10T00:58:39.659Z,0
2018-06-10T00:59:41.052Z,0
2018-06-10T01:00:42.443Z,0
2018-06-10T01:01:43.844Z,0
2018-06-10T01:02:45.232Z,0
2018-06-10T01:03:46.626Z,0
2018-06-10T01:04:48.020Z,0
2018-06-10T01:05:49.413Z,0
2018-06-10T01:06:50.806Z,0
2018-06-10T01:07:52.236Z,0
2018-06-10T01:08:53.656Z,0
2018-06-10T01:09:55.050Z,0
2018-06-10T01:10:56.445Z,0
2018-06-10T01:11:57.843Z,0
2018-06-10T01:12:59.233Z,0
2018-06-10T01:14:00.626Z,0
2018-06-10T01:15:02.019Z,0
2018-06-10T01:16:03.413Z,0
2018-06-10T01:17:04.811Z,0
2018-06-10T01:18:06.205Z,0
2018-06-10T01:19:07.595Z,0
2018-06-10T01:20:08.992Z,0
2018-06-10T01:21:10.391Z,0
2018-06-10T01:22:11.782Z,0
2018-06-10T01:23:13.174Z,0
2018-06-10T01:24:14.567Z,0
2018-06-10T01:25:15.958Z,0
2018-06-10T01:26:17.350Z,0
2018-06-10T01:27:18.747Z,0
2018-06-10T01:28:20.141Z,0
2018-06-10T01:29:21.539Z,0
2018-06-10T01:30:22.932Z,0
2018-06-10T01:31:24.325Z,0
2018-06-10T01:32:25.717Z,0
2018-06-10T01:33:27.112Z,0
2018-06-10T01:34:28.504Z,0
2018-06-10T01:35:29.897Z,0
2018-06-10T01:36:31.290Z,0
2018-06-10T01:37:32.684Z,0
2018-06-10T01:38:34.075Z,0
2018-06-10T01:39:35.467Z,0
2018-06-10T01:40:36.866Z,0
2018-06-10T01:41:38.261Z,0
2018-06-10T01:42:39.656Z,0
2018-06-10T01:43:41.050Z,0
2018-06-10T01:44:42.444Z,0
2018-06-10T01:45:43.836Z,0
2018-06-10T01:46:45.232Z,0
2018-06-10T01:47:46.624Z,0
2018-06-10T01:48:48.017Z,0
2018-06-10T01:49:49.413Z,0
2018-06-10T01:50:50.817Z,0
2018-06-10T01:51:52.215Z,0
2018-06-10T01:52:53.609Z,0
2018-06-10T01:53:55.003Z,0
2018-06-10T01:54:56.394Z,0
2018-06-10T01:55:57.799Z,0
2018-06-10T01:56:59.187Z,0
2018-06-10T01:58:00.582Z,0
2018-06-10T01:59:01.979Z,0
2018-06-10T02:00:03.376Z,0
2018-06-10T02:01:04.767Z,0
2018-06-10T02:02:06.162Z,0
2018-06-10T02:03:07.554Z,0
2018-06-10T02:04:08.951Z,0
2018-06-10T02:05:10.341Z,0
2018-06-10T02:06:11.729Z,0
2018-06-10T02:07:13.121Z,0
2018-06-10T02:08:14.516Z,0
2018-06-10T02:09:15.910Z,0
2018-06-10T02:10:17.314Z,0
2018-06-10T02:11:18.711Z,0
2018-06-10T02:12:20.102Z,0
2018-06-10T02:13:21.492Z,0
2018-06-10T02:14:22.887Z,0
2018-06-10T02:15:24.280Z,0
2018-06-10T02:16:25.671Z,0
2018-06-10T02:17:27.066Z,0
2018-06-10T02:18:28.460Z,0
2018-06-10T02:19:29.850Z,0
2018-06-10T02:20:31.241Z,0
2018-06-10T02:21:32.640Z,0
2018-06-10T02:22:34.034Z,0
2018-06-10T02:23:35.427Z,0
2018-06-10T02:24:36.820Z,0
2018-06-10T02:25:38.220Z,0
2018-06-10T02:26:39.612Z,0
2018-06-10T02:27:41.003Z,0
2018-06-10T02:28:42.399Z,0
2018-06-10T02:29:43.792Z,0
2018-06-10T02:30:45.189Z,0
2018-06-10T02:31:46.583Z,0
2018-06-10T02:32:47.976Z,0
2018-06-10T02:33:49.361Z,0
2018-06-10T02:34:50.746Z,0
2018-06-10T02:35:52.151Z,0
2018-06-10T02:36:53.544Z,0
2018-06-10T02:37:54.940Z,0
2018-06-10T02:38:56.337Z,0
2018-06-10T02:39:57.728Z,0
2018-06-10T02:40:59.124Z,0
2018-06-10T02:42:00.512Z,0
2018-06-10T02:43:01.913Z,0
2018-06-10T02:44:03.300Z,0
2018-06-10T02:45:04.693Z,0
2018-06-10T02:46:06.090Z,0
2018-06-10T02:47:07.490Z,0
2018-06-10T02:48:08.879Z,0
2018-06-10T02:49:10.270Z,0
2018-06-10T02:50:11.669Z,0
2018-06-10T02:51:13.051Z,0
2018-06-10T02:52:14.452Z,0
2018-06-10T02:53:15.848Z,0
2018-06-10T02:54:17.243Z,0
2018-06-10T02:55:18.631Z,0
2018-06-10T02:56:20.021Z,0
2018-06-10T02:57:21.411Z,0
2018-06-10T02:58:22.801Z,0
2018-06-10T02:59:24.198Z,0
2018-06-10T03:00:25.597Z,0
2018-06-10T03:01:26.992Z,0
2018-06-10T03:02:28.384Z,0
2018-06-10T03:03:29.773Z,0
2018-06-10T03:04:31.165Z,0
2018-06-10T03:05:32.558Z,0
2018-06-10T03:06:33.959Z,0
2018-06-10T03:07:35.358Z,0
2018-06-10T03:08:36.748Z,0
2018-06-10T03:09:38.148Z,0
2018-06-10T03:10:39.542Z,0
2018-06-10T03:11:40.935Z,0
2018-06-10T03:12:42.344Z,0
2018-06-10T03:13:43.725Z,0
2018-06-10T03:14:45.120Z,0
2018-06-10T03:15:46.517Z,0
2018-06-10T03:16:47.923Z,0
2018-06-10T03:17:49.319Z,0
2018-06-10T03:18:50.859Z,0
2018-06-10T03:19:52.270Z,0
2018-06-10T03:20:53.664Z,0
2018-06-10T03:21:55.057Z,0
2018-06-10T03:22:56.456Z,0
2018-06-10T03:23:57.844Z,0
2018-06-10T03:24:59.241Z,0
2018-06-10T03:26:00.664Z,0
2018-06-10T03:27:02.059Z,0
2018-06-10T03:28:03.453Z,0
2018-06-10T03:29:04.847Z,0
2018-06-10T03:30:06.249Z,0
2018-06-10T03:31:07.641Z,0
2018-06-10T03:32:09.039Z,0
2018-06-10T03:33:10.428Z,0
2018-06-10T03:34:11.821Z,5
2018-06-10T03:35:13.216Z,5
2018-06-10T03:36:14.612Z,5
2018-06-10T03:37:16.006Z,5
2018-06-10T03:38:17.402Z,5
2018-06-10T03:39:18.793Z,5
2018-06-10T03:40:20.188Z,5
2018-06-10T03:41:21.582Z,5
2018-06-10T03:42:22.988Z,5
2018-06-10T03:43:24.383Z,5
2018-06-10T03:44:25.785Z,5
2018-06-10T03:45:27.172Z,5
2018-06-10T03:46:28.565Z,5
2018-06-10T03:47:29.960Z,5
2018-06-10T03:48:31.355Z,5
2018-06-10T03:49:32.757Z,11
2018-06-10T03:50:34.152Z,11
2018-06-10T03:51:35.554Z,11
2018-06-10T03:52:36.952Z,11
2018-06-10T03:53:38.342Z,11
2018-06-10T03:54:39.736Z,11
2018-06-10T03:55:41.133Z,11
2018-06-10T03:56:42.528Z,11
2018-06-10T03:57:43.924Z,11
2018-06-10T03:58:45.324Z,11
2018-06-10T03:59:46.721Z,11
2018-06-10T04:00:48.120Z,11
2018-06-10T04:01:49.513Z,11
2018-06-10T04:02:51.030Z,11
2018-06-10T04:03:52.436Z,16
2018-06-10T04:04:53.831Z,16
2018-06-10T04:05:55.231Z,16
2018-06-10T04:06:56.626Z,16
2018-06-10T04:07:58.022Z,16
2018-06-10T04:08:59.418Z,16
2018-06-10T04:10:00.811Z,16
2018-06-10T04:11:02.210Z,16
2018-06-10T04:12:03.606Z,16
2018-06-10T04:13:05.009Z,22
2018-06-10T04:14:06.404Z,22
2018-06-10T04:15:07.799Z,22
2018-06-10T04:16:09.199Z,22
2018-06-10T04:17:10.596Z,22
2018-06-10T04:18:11.996Z,22
2018-06-10T04:19:13.395Z,22
2018-06-10T04:20:14.795Z,22
2018-06-10T04:21:16.189Z,22
2018-06-10T04:22:17.578Z,22
2018-06-10T04:23:18.982Z,28
2018-06-10T04:24:20.376Z,28
2018-06-10T04:25:21.774Z,28
2018-06-10T04:26:23.170Z,28
2018-06-10T04:27:24.566Z,28
2018-06-10T04:28:25.962Z,28
2018-06-10T04:29:27.356Z,28
2018-06-10T04:30:28.757Z,28
2018-06-10T04:31:30.154Z,28
2018-06-10T04:32:31.548Z,28
2018-06-10T04:33:32.950Z,28
2018-06-10T04:34:34.347Z,28
2018-06-10T04:35:35.746Z,28
2018-06-10T04:36:37.139Z,28
2018-06-10T04:37:38.539Z,28
2018-06-10T04:38:39.938Z,28
2018-06-10T04:39:41.335Z,28
2018-06-10T04:40:42.731Z,28
2018-06-10T04:41:44.128Z,28
2018-06-10T04:42:45.525Z,28
2018-06-10T04:43:46.916Z,28
2018-06-10T04:44:48.313Z,28
2018-06-10T04:45:49.708Z,28
2018-06-10T04:46:51.167Z,28
2018-06-10T04:47:52.564Z,33
2018-06-10T04:48:53.960Z,33
2018-06-10T04:49:55.355Z,33
2018-06-10T04:50:56.750Z,33
2018-06-10T04:51:58.147Z,28
2018-06-10T04:52:59.570Z,28
2018-06-10T04:54:00.949Z,28
2018-06-10T04:55:02.346Z,33
2018-06-10T04:56:03.744Z,33
2018-06-10T04:57:05.139Z,33
2018-06-10T04:58:06.532Z,33
2018-06-10T04:59:07.928Z,33
2018-06-10T05:00:09.326Z,33
2018-06-10T05:01:10.721Z,33
2018-06-10T05:02:12.122Z,39
2018-06-10T05:03:13.519Z,39
2018-06-10T05:04:14.915Z,39
2018-06-10T05:05:16.352Z,39
2018-06-10T05:06:17.747Z,39
2018-06-10T05:07:19.144Z,39
2018-06-10T05:08:20.546Z,39
2018-06-10T05:09:21.943Z,39
2018-06-10T05:10:23.343Z,39
2018-06-10T05:11:24.738Z,39
2018-06-10T05:12:26.133Z,39
2018-06-10T05:13:27.528Z,45
2018-06-10T05:14:28.926Z,45
2018-06-10T05:15:30.322Z,45
2018-06-10T05:16:31.721Z,45
2018-06-10T05:17:33.119Z,45
2018-06-10T05:18:34.519Z,50
2018-06-10T05:19:35.951Z,50
2018-06-10T05:20:37.314Z,50
2018-06-10T05:21:38.709Z,50
2018-06-10T05:22:40.109Z,50
2018-06-10T05:23:41.504Z,50
2018-06-10T05:24:42.904Z,56
2018-06-10T05:25:44.302Z,56
2018-06-10T05:26:45.699Z,56
2018-06-10T05:27:47.098Z,56
2018-06-10T05:28:48.493Z,56
2018-06-10T05:29:49.890Z,56
2018-06-10T05:30:51.329Z,56
2018-06-10T05:31:52.736Z,56
2018-06-10T05:32:54.135Z,56
2018-06-10T05:33:55.532Z,56
2018-06-10T05:34:56.928Z,61
2018-06-10T05:35:58.325Z,67
2018-06-10T05:36:59.739Z,67
2018-06-10T05:38:01.121Z,67
2018-06-10T05:39:02.523Z,61
2018-06-10T05:40:03.967Z,67
2018-06-10T05:41:05.318Z,67
2018-06-10T05:42:06.719Z,67
2018-06-10T05:43:08.112Z,67
2018-06-10T05:44:09.515Z,67
2018-06-10T05:45:10.915Z,67
2018-06-10T05:46:12.311Z,67
2018-06-10T05:47:13.707Z,61
2018-06-10T05:48:15.127Z,61
2018-06-10T05:49:16.527Z,67
2018-06-10T05:50:17.925Z,67
2018-06-10T05:51:19.378Z,61
2018-06-10T05:52:20.726Z,56
2018-06-10T05:53:22.125Z,56
2018-06-10T05:54:23.523Z,56
2018-06-10T05:55:24.917Z,56
2018-06-10T05:56:26.318Z,67
2018-06-10T05:57:27.715Z,78
2018-06-10T05:58:29.120Z,73
2018-06-10T05:59:30.523Z,84
2018-06-10T06:00:31.919Z,84
2018-06-10T06:01:33.316Z,84
2018-06-10T06:02:34.717Z,78
2018-06-10T06:03:36.118Z,73
2018-06-10T06:04:37.527Z,67
2018-06-10T06:05:38.926Z,73
2018-06-10T06:06:40.326Z,73
2018-06-10T06:07:41.729Z,73
2018-06-10T06:08:43.125Z,61
2018-06-10T06:09:44.525Z,61
2018-06-10T06:10:45.921Z,61
2018-06-10T06:11:47.322Z,61
2018-06-10T06:12:48.727Z,61
2018-06-10T06:13:50.147Z,67
2018-06-10T06:14:51.621Z,67
2018-06-10T06:15:53.019Z,61
2018-06-10T06:16:54.415Z,56
2018-06-10T06:17:55.811Z,39
2018-06-10T06:18:57.206Z,39
2018-06-10T06:19:58.603Z,33
2018-06-10T06:21:00.008Z,39
2018-06-10T06:22:01.400Z,39
2018-06-10T06:23:02.813Z,39
2018-06-10T06:24:04.213Z,45
2018-06-10T06:25:05.608Z,45
2018-06-10T06:26:07.006Z,50
2018-06-10T06:27:08.406Z,67
2018-06-10T06:28:09.805Z,67
2018-06-10T06:29:11.204Z,73
2018-06-10T06:30:12.601Z,67
2018-06-10T06:31:13.996Z,56
2018-06-10T06:32:15.393Z,39
2018-06-10T06:33:16.820Z,39
2018-06-10T06:34:18.191Z,50
2018-06-10T06:35:19.597Z,67
2018-06-10T06:36:20.998Z,73
2018-06-10T06:37:22.394Z,78
2018-06-10T06:38:23.793Z,84
2018-06-10T06:39:25.248Z,84
2018-06-10T06:40:26.587Z,90
2018-06-10T06:41:27.988Z,101
2018-06-10T06:42:29.390Z,101
2018-06-10T06:43:30.788Z,118
2018-06-10T06:44:32.187Z,118
2018-06-10T06:45:33.585Z,118
2018-06-10T06:46:34.986Z,129
2018-06-10T06:47:36.386Z,129
2018-06-10T06:48:37.786Z,129
2018-06-10T06:49:39.189Z,135
2018-06-10T06:50:40.590Z,146
2018-06-10T06:51:41.993Z,157
2018-06-10T06:52:43.392Z,163
2018-06-10T06:53:44.827Z,157
2018-06-10T06:54:46.188Z,140
2018-06-10T06:55:47.594Z,129
2018-06-10T06:56:51.956Z,129
2018-06-10T06:57:53.431Z,135
2018-06-10T06:58:54.757Z,135
2018-06-10T06:59:56.160Z,140
2018-06-10T07:00:57.566Z,135
2018-06-10T07:01:58.962Z,146
2018-06-10T07:03:00.364Z,157
2018-06-10T07:04:01.772Z,151
2018-06-10T07:05:03.173Z,140
2018-06-10T07:06:04.569Z,140
2018-06-10T07:07:05.968Z,140
2018-06-10T07:08:07.365Z,140
2018-06-10T07:09:08.764Z,146
2018-06-10T07:10:10.164Z,146
2018-06-10T07:11:11.562Z,146
2018-06-10T07:12:12.965Z,151
2018-06-10T07:13:14.365Z,151
2018-06-10T07:14:15.765Z,151
2018-06-10T07:15:17.165Z,151
2018-06-10T07:16:18.574Z,151
2018-06-10T07:17:19.972Z,151
2018-06-10T07:18:21.376Z,151
2018-06-10T07:19:22.800Z,151
2018-06-10T07:20:24.197Z,157
2018-06-10T07:21:25.595Z,157
2018-06-10T07:22:26.995Z,163
2018-06-10T07:23:28.393Z,163
2018-06-10T07:24:29.791Z,163
2018-06-10T07:25:31.190Z,157
2018-06-10T07:26:32.590Z,140
2018-06-10T07:27:33.988Z,123
2018-06-10T07:28:35.382Z,123
2018-06-10T07:29:36.835Z,123
2018-06-10T07:30:38.193Z,123
2018-06-10T07:31:39.594Z,129
2018-06-10T07:32:40.994Z,129
2018-06-10T07:33:42.393Z,129
2018-06-10T07:34:43.787Z,123
2018-06-10T07:35:45.250Z,123
2018-06-10T07:36:46.711Z,123
2018-06-10T07:37:48.110Z,129
2018-06-10T07:38:49.509Z,129
2018-06-10T07:39:50.909Z,140
2018-06-10T07:40:52.314Z,146
2018-06-10T07:41:53.712Z,151
2018-06-10T07:42:55.110Z,174
2018-06-10T07:43:56.507Z,191
2018-06-10T07:44:57.916Z,191
2018-06-10T07:45:59.315Z,185
2018-06-10T07:47:00.711Z,180
2018-06-10T07:48:02.114Z,174
2018-06-10T07:49:03.516Z,180
2018-06-10T07:50:04.913Z,180
2018-06-10T07:51:06.311Z,174
2018-06-10T07:52:07.711Z,174
2018-06-10T07:53:09.115Z,185
2018-06-10T07:54:10.516Z,185
2018-06-10T07:55:11.913Z,151
2018-06-10T07:56:13.312Z,140
2018-06-10T07:57:14.710Z,135
2018-06-10T07:58:16.105Z,129
2018-06-10T07:59:17.503Z,129
2018-06-10T08:00:18.903Z,135
2018-06-10T08:01:20.305Z,140
2018-06-10T08:02:21.707Z,151
2018-06-10T08:03:23.100Z,163
2018-06-10T08:04:24.499Z,163
2018-06-10T08:05:25.939Z,157
2018-06-10T08:06:27.294Z,140
2018-06-10T08:07:28.693Z,118
2018-06-10T08:08:30.098Z,101
2018-06-10T08:09:31.496Z,95
2018-06-10T08:10:32.904Z,95
2018-06-10T08:11:34.305Z,95
2018-06-10T08:12:35.711Z,95
2018-06-10T08:13:37.107Z,90
2018-06-10T08:14:38.509Z,84
2018-06-10T08:15:39.907Z,84
2018-06-10T08:16:41.314Z,78
2018-06-10T08:17:42.711Z,84
2018-06-10T08:18:44.621Z,73
2018-06-10T08:19:46.011Z,73
2018-06-10T08:20:47.414Z,73
2018-06-10T08:21:48.810Z,73
2018-06-10T08:22:51.104Z,73
2018-06-10T08:23:52.509Z,73
2018-06-10T08:24:54.483Z,73
2018-06-10T08:25:56.666Z,73
2018-06-10T08:26:59.236Z,84
2018-06-10T08:28:01.192Z,84
2018-06-10T08:29:03.185Z,90
2018-06-10T08:30:04.587Z,101
2018-06-10T08:31:05.990Z,112
2018-06-10T08:32:07.780Z,118
2018-06-10T08:33:09.432Z,112
2018-06-10T08:34:11.142Z,112
2018-06-10T08:35:12.943Z,106
2018-06-10T08:36:14.637Z,106
2018-06-10T08:37:16.329Z,112
2018-06-10T08:38:18.014Z,118
2018-06-10T08:39:19.579Z,129
2018-06-10T08:40:21.265Z,140
2018-06-10T08:41:23.000Z,151
2018-06-10T08:42:24.725Z,163
2018-06-10T08:43:26.373Z,168
2018-06-10T08:44:28.024Z,174
2018-06-10T08:45:29.719Z,180
2018-06-10T08:46:31.344Z,174
2018-06-10T08:47:33.025Z,180
2018-06-10T08:48:34.585Z,180
2018-06-10T08:49:35.997Z,191
2018-06-10T08:50:37.436Z,202
2018-06-10T08:51:38.798Z,208
2018-06-10T08:52:40.200Z,208
2018-06-10T08:53:41.604Z,208
2018-06-10T08:54:43.002Z,202
2018-06-10T08:55:44.402Z,208
2018-06-10T08:56:45.802Z,213
2018-06-10T08:57:47.203Z,219
2018-06-10T08:58:48.603Z,236
2018-06-10T08:59:50.023Z,241
2018-06-10T09:00:51.421Z,241
2018-06-10T09:01:52.819Z,225
2018-06-10T09:02:54.229Z,208
2018-06-10T09:03:55.624Z,196
2018-06-10T09:04:57.030Z,202
2018-06-10T09:05:58.470Z,219
2018-06-10T09:06:59.869Z,225
2018-06-10T09:08:01.271Z,219
2018-06-10T09:09:02.680Z,213
2018-06-10T09:10:04.074Z,219
2018-06-10T09:11:05.473Z,225
2018-06-10T09:12:06.945Z,230
2018-06-10T09:13:08.349Z,236
2018-06-10T09:14:09.751Z,236
2018-06-10T09:15:11.150Z,230
2018-06-10T09:16:12.567Z,219
2018-06-10T09:17:13.968Z,219
2018-06-10T09:18:15.371Z,225
2018-06-10T09:19:16.770Z,236
2018-06-10T09:20:18.169Z,247
2018-06-10T09:21:19.574Z,258
2018-06-10T09:22:21.034Z,258
2018-06-10T09:23:22.379Z,258
2018-06-10T09:24:23.781Z,270
2018-06-10T09:25:25.208Z,281
2018-06-10T09:26:26.611Z,292
2018-06-10T09:27:28.048Z,303
2018-06-10T09:28:29.447Z,286
2018-06-10T09:29:30.844Z,258
2018-06-10T09:30:32.247Z,241
2018-06-10T09:31:33.723Z,247
2018-06-10T09:32:35.137Z,298
2018-06-10T09:33:36.540Z,360
2018-06-10T09:34:37.941Z,388
2018-06-10T09:35:39.345Z,365
2018-06-10T09:36:40.747Z,337
2018-06-10T09:37:42.150Z,331
2018-06-10T09:38:43.550Z,320
2018-06-10T09:39:44.950Z,303
2018-06-10T09:40:46.351Z,286
2018-06-10T09:41:47.767Z,275
2018-06-10T09:42:49.173Z,264
2018-06-10T09:43:50.569Z,219
2018-06-10T09:44:51.969Z,185
2018-06-10T09:45:53.368Z,180
2018-06-10T09:46:54.768Z,180
2018-06-10T09:47:56.168Z,185
2018-06-10T09:48:57.569Z,185
2018-06-10T09:49:58.972Z,191
2018-06-10T09:51:00.370Z,196
2018-06-10T09:52:01.782Z,196
2018-06-10T09:53:03.185Z,185
2018-06-10T09:54:04.584Z,180
2018-06-10T09:55:06.029Z,163
2018-06-10T09:56:07.389Z,151
2018-06-10T09:57:08.792Z,151
2018-06-10T09:58:10.192Z,151
2018-06-10T09:59:11.595Z,157
2018-06-10T10:00:12.991Z,157
2018-06-10T10:01:14.391Z,151
2018-06-10T10:02:15.793Z,151
2018-06-10T10:03:17.192Z,151
2018-06-10T10:04:18.598Z,151
2018-06-10T10:05:19.997Z,151
2018-06-10T10:06:21.726Z,157
2018-06-10T10:07:23.412Z,157
2018-06-10T10:08:25.296Z,157
2018-06-10T10:09:26.686Z,151
2018-06-10T10:10:28.088Z,140
2018-06-10T10:11:29.491Z,135
2018-06-10T10:12:30.893Z,129
2018-06-10T10:13:32.410Z,123
2018-06-10T10:14:33.822Z,118
2018-06-10T10:15:35.168Z,118
2018-06-10T10:16:36.570Z,118
2018-06-10T10:17:37.969Z,118
2018-06-10T10:18:39.372Z,123
2018-06-10T10:19:40.769Z,135
2018-06-10T10:20:42.165Z,146
2018-06-10T10:21:43.573Z,157
2018-06-10T10:22:44.968Z,163
2018-06-10T10:23:46.374Z,168
2018-06-10T10:24:47.770Z,163
2018-06-10T10:25:49.175Z,163
2018-06-10T10:26:50.573Z,146
2018-06-10T10:27:51.974Z,140
2018-06-10T10:28:53.377Z,140
2018-06-10T10:29:54.813Z,135
2018-06-10T10:30:56.211Z,135
2018-06-10T10:31:57.670Z,129
2018-06-10T10:32:59.031Z,123
2018-06-10T10:34:00.441Z,118
2018-06-10T10:35:01.845Z,118
2018-06-10T10:36:03.245Z,112
2018-06-10T10:37:04.650Z,118
2018-06-10T10:38:06.050Z,129
2018-06-10T10:39:07.462Z,135
2018-06-10T10:40:08.862Z,140
2018-06-10T10:41:10.260Z,151
2018-06-10T10:42:11.661Z,151
2018-06-10T10:43:13.071Z,157
2018-06-10T10:44:14.473Z,151
2018-06-10T10:45:15.876Z,146
2018-06-10T10:46:18.270Z,140
2018-06-10T10:47:19.670Z,140
2018-06-10T10:48:21.078Z,135
2018-06-10T10:49:22.475Z,123
2018-06-10T10:50:23.875Z,118
2018-06-10T10:51:25.275Z,118
2018-06-10T10:52:26.678Z,118
2018-06-10T10:53:28.077Z,123
2018-06-10T10:54:29.478Z,135
2018-06-10T10:55:30.875Z,140
2018-06-10T10:56:32.273Z,140
2018-06-10T10:57:33.685Z,146
2018-06-10T10:58:35.087Z,146
2018-06-10T10:59:36.488Z,146
2018-06-10T11:00:37.897Z,135
2018-06-10T11:01:39.302Z,129
2018-06-10T11:02:40.701Z,123
2018-06-10T11:03:42.101Z,135
2018-06-10T11:04:43.500Z,146
2018-06-10T11:05:44.902Z,146
2018-06-10T11:06:46.302Z,140
2018-06-10T11:07:47.703Z,146
2018-06-10T11:08:49.104Z,146
2018-06-10T11:09:50.500Z,151
2018-06-10T11:10:51.901Z,157
2018-06-10T11:11:53.298Z,157
2018-06-10T11:12:54.700Z,157
2018-06-10T11:13:56.100Z,151
2018-06-10T11:14:57.531Z,157
2018-06-10T11:15:58.903Z,168
2018-06-10T11:17:00.303Z,174
2018-06-10T11:18:01.700Z,180
2018-06-10T11:19:03.100Z,185
2018-06-10T11:20:04.499Z,185
2018-06-10T11:21:05.897Z,185
2018-06-10T11:22:07.851Z,185
2018-06-10T11:23:09.756Z,185
2018-06-10T11:24:11.595Z,185
2018-06-10T11:25:13.386Z,202
2018-06-10T11:26:15.391Z,219
2018-06-10T11:27:17.436Z,208
2018-06-10T11:28:19.407Z,180
2018-06-10T11:29:21.421Z,174
2018-06-10T11:30:23.473Z,174
2018-06-10T11:31:25.405Z,168
2018-06-10T11:32:27.340Z,157
2018-06-10T11:33:29.233Z,146
2018-06-10T11:34:31.355Z,140
2018-06-10T11:35:33.166Z,146
2018-06-10T11:36:35.097Z,151
2018-06-10T11:37:37.115Z,151
2018-06-10T11:38:39.041Z,151
2018-06-10T11:39:40.446Z,163
2018-06-10T11:40:41.847Z,180
2018-06-10T11:41:43.246Z,191
2018-06-10T11:42:44.646Z,202
2018-06-10T11:43:46.048Z,213
2018-06-10T11:44:47.452Z,219
2018-06-10T11:45:48.863Z,225
2018-06-10T11:46:50.267Z,230
2018-06-10T11:47:51.665Z,225
2018-06-10T11:48:53.088Z,219
2018-06-10T11:49:54.489Z,213
2018-06-10T11:50:55.891Z,202
2018-06-10T11:51:57.319Z,180
2018-06-10T11:52:58.698Z,157
2018-06-10T11:54:00.099Z,140
2018-06-10T11:55:01.501Z,146
2018-06-10T11:56:02.900Z,157
2018-06-10T11:57:04.304Z,168
2018-06-10T11:58:05.749Z,180
2018-06-10T11:59:07.099Z,185
2018-06-10T12:00:08.506Z,191
2018-06-10T12:01:09.902Z,191
2018-06-10T12:02:11.300Z,191
2018-06-10T12:03:12.702Z,185
2018-06-10T12:04:14.110Z,180
2018-06-10T12:05:15.523Z,180
2018-06-10T12:06:16.912Z,185
2018-06-10T12:07:18.310Z,191
2018-06-10T12:08:19.709Z,196
2018-06-10T12:09:21.109Z,196
2018-06-10T12:10:22.505Z,185
2018-06-10T12:11:23.909Z,180
2018-06-10T12:12:25.312Z,174
2018-06-10T12:13:26.717Z,168
2018-06-10T12:14:28.118Z,163
2018-06-10T12:15:29.522Z,163
2018-06-10T12:16:30.953Z,168
2018-06-10T12:17:32.352Z,180
2018-06-10T12:18:33.757Z,191
2018-06-10T12:19:35.159Z,202
2018-06-10T12:20:36.564Z,219
2018-06-10T12:21:37.962Z,225
2018-06-10T12:22:39.431Z,219
2018-06-10T12:23:40.762Z,225
2018-06-10T12:24:42.160Z,230
2018-06-10T12:25:43.559Z,230
2018-06-10T12:26:44.960Z,241
2018-06-10T12:27:46.360Z,253
2018-06-10T12:28:47.765Z,253
2018-06-10T12:29:49.166Z,247
2018-06-10T12:30:50.566Z,236
2018-06-10T12:31:51.964Z,236
2018-06-10T12:32:53.363Z,241
2018-06-10T12:33:54.763Z,253
2018-06-10T12:34:56.165Z,281
2018-06-10T12:35:57.567Z,303
2018-06-10T12:36:58.965Z,326
2018-06-10T12:38:00.683Z,331
2018-06-10T12:39:02.153Z,315
2018-06-10T12:40:03.947Z,292
2018-06-10T12:41:05.701Z,275
2018-06-10T12:42:07.277Z,270
2018-06-10T12:43:08.685Z,281
2018-06-10T12:44:10.086Z,298
2018-06-10T12:45:11.488Z,309
2018-06-10T12:46:12.887Z,326
2018-06-10T12:47:14.286Z,388
2018-06-10T12:48:15.694Z,455
2018-06-10T12:49:17.153Z,421
2018-06-10T12:50:18.490Z,416
2018-06-10T12:51:19.889Z,478
2018-06-10T12:52:21.289Z,433
2018-06-10T12:53:22.689Z,405
2018-06-10T12:54:24.121Z,326
2018-06-10T12:55:25.544Z,281
2018-06-10T12:56:26.946Z,253
2018-06-10T12:57:28.350Z,241
2018-06-10T12:58:29.753Z,241
2018-06-10T12:59:31.151Z,264
2018-06-10T13:00:32.592Z,298
2018-06-10T13:01:34.036Z,326
2018-06-10T13:02:35.436Z,405
2018-06-10T13:03:36.840Z,618
2018-06-10T13:04:38.239Z,590
2018-06-10T13:05:39.638Z,703
2018-06-10T13:06:41.041Z,635
2018-06-10T13:07:42.445Z,528
2018-06-10T13:08:43.848Z,585
2018-06-10T13:09:45.253Z,427
2018-06-10T13:10:46.687Z,781
2018-06-10T13:11:48.085Z,905
2018-06-10T13:12:49.487Z,815
2018-06-10T13:13:50.896Z,489
2018-06-10T13:14:52.296Z,900
2018-06-10T13:15:53.709Z,815
2018-06-10T13:16:55.113Z,945
2018-06-10T13:17:56.516Z,534
2018-06-10T13:18:57.917Z,506
2018-06-10T13:19:59.320Z,804
2018-06-10T13:21:00.729Z,388
2018-06-10T13:22:02.127Z,405
2018-06-10T13:23:03.529Z,506
2018-06-10T13:24:04.935Z,393
2018-06-10T13:25:06.341Z,826
2018-06-10T13:26:07.750Z,877
2018-06-10T13:27:09.156Z,905
2018-06-10T13:28:10.559Z,838
2018-06-10T13:29:11.960Z,855
2018-06-10T13:30:13.369Z,860
2018-06-10T13:31:14.771Z,866
2018-06-10T13:32:16.176Z,770
2018-06-10T13:33:17.582Z,517
2018-06-10T13:34:18.986Z,736
2018-06-10T13:35:20.389Z,388
2018-06-10T13:36:21.793Z,675
2018-06-10T13:37:23.221Z,365
2018-06-10T13:38:24.624Z,720
2018-06-10T13:39:26.029Z,860
2018-06-10T13:40:27.478Z,832
2018-06-10T13:41:28.834Z,798
2018-06-10T13:42:30.237Z,376
2018-06-10T13:43:31.651Z,511
2018-06-10T13:44:33.067Z,365
2018-06-10T13:45:34.568Z,433
2018-06-10T13:46:35.985Z,410
2018-06-10T13:47:37.387Z,393
2018-06-10T13:48:38.787Z,382
2018-06-10T13:49:40.191Z,315
2018-06-10T13:50:41.595Z,399
2018-06-10T13:51:42.999Z,765
2018-06-10T13:52:44.405Z,787
2018-06-10T13:53:45.811Z,765
2018-06-10T13:54:47.215Z,748
2018-06-10T13:55:48.619Z,821
2018-06-10T13:56:50.023Z,731
2018-06-10T13:57:51.431Z,483
2018-06-10T13:58:52.827Z,720
2018-06-10T13:59:54.231Z,658
2018-06-10T14:00:55.635Z,433
2018-06-10T14:01:57.046Z,399
2018-06-10T14:02:58.441Z,438
2018-06-10T14:03:59.845Z,686
2018-06-10T14:05:01.249Z,506
2018-06-10T14:06:02.725Z,528
2018-06-10T14:07:04.091Z,691
2018-06-10T14:08:05.500Z,675
2018-06-10T14:09:06.905Z,714
2018-06-10T14:10:08.311Z,652
2018-06-10T14:11:09.716Z,641
2018-06-10T14:12:11.115Z,675
2018-06-10T14:13:12.519Z,691
2018-06-10T14:14:13.926Z,680
2018-06-10T14:15:15.383Z,652
2018-06-10T14:16:16.738Z,618
2018-06-10T14:17:18.146Z,663
2018-06-10T14:18:19.549Z,708
2018-06-10T14:19:20.952Z,697
2018-06-10T14:20:22.357Z,697
2018-06-10T14:21:23.763Z,669
2018-06-10T14:22:25.172Z,652
2018-06-10T14:23:26.576Z,652
2018-06-10T14:24:27.977Z,613
2018-06-10T14:25:29.383Z,500
2018-06-10T14:26:30.788Z,438
2018-06-10T14:27:32.211Z,450